Time;durP1;ratioP1;P1;durP2;ratioP2;P2;SDS_P1;SDS_P2;PMS_P1;PMS_P2;Temp;Humidity;BMP_temperature;BMP_pressure;BME280_temperature;BME280_humidity;BME280_pressure;Samples;Min_cycle;Max_cycle;Signal;HPM_P1;HPM_P2
2022/07/18 00:02:05;;;;;;;;;;;16.20;99.90;;;;;;5053088;28;20003;-79
2022/07/18 00:04:31;;;;;;;;;;;16.10;99.90;;;;;;5037226;28;19983;-79
2022/07/18 00:06:57;;;;;;;;;;;16.00;99.90;;;;;;5035280;28;19959;-79
2022/07/18 00:09:23;;;;;;;;;;;16.00;99.90;;;;;;5036366;28;19916;-79
2022/07/18 00:11:50;;;;;;;;;;;15.90;99.90;;;;;;5055931;28;19920;-78
2022/07/18 00:14:15;;;;;;;;;;;15.90;99.90;;;;;;5043147;28;19917;-79
2022/07/18 00:16:41;;;;;;;;;;;15.80;99.90;;;;;;5033675;28;19959;-79
2022/07/18 00:19:06;;;;;;;;;;;15.80;99.90;;;;;;5036250;28;19913;-79
2022/07/18 00:21:32;;;;;;;;;;;15.80;99.90;;;;;;5039122;28;19962;-79
2022/07/18 00:23:58;;;;;;;;;;;15.80;99.90;;;;;;5047829;28;19917;-79
2022/07/18 00:26:24;;;;;;;;;;;15.70;99.90;;;;;;5034877;28;20220;-79
2022/07/18 00:28:49;;;;;;;;;;;15.60;99.90;;;;;;5035951;28;19924;-78
2022/07/18 00:31:15;;;;;;;;;;;15.60;99.90;;;;;;5043934;28;19917;-78
2022/07/18 00:33:40;;;;;;;;;;;15.50;99.90;;;;;;5054208;28;19909;-78
2022/07/18 00:36:06;;;;;;;;;;;15.50;99.90;;;;;;5036180;28;19963;-79
2022/07/18 00:38:31;;;;;;;;;;;15.50;99.90;;;;;;5046129;28;19920;-79
2022/07/18 00:40:57;;;;;;;;;;;15.50;99.90;;;;;;5036418;28;19956;-79
2022/07/18 00:43:23;;;;;;;;;;;15.50;99.90;;;;;;5036139;28;19928;-79
2022/07/18 00:45:49;;;;;;;;;;;15.50;99.90;;;;;;5036662;28;20593;-79
2022/07/18 00:48:15;;;;;;;;;;;15.40;99.90;;;;;;5035034;28;20209;-78
2022/07/18 00:50:41;;;;;;;;;;;15.40;99.90;;;;;;5038159;28;19909;-79
2022/07/18 00:53:07;;;;;;;;;;;15.40;99.90;;;;;;5044663;28;20319;-78
2022/07/18 00:55:33;;;;;;;;;;;15.40;99.90;;;;;;5034632;28;19960;-78
2022/07/18 00:57:59;;;;;;;;;;;15.40;99.90;;;;;;5038764;28;19968;-77
2022/07/18 01:03:08;;;;;;;;;;;15.50;99.90;;;;;;5044197;28;19928;-78
2022/07/18 01:05:34;;;;;;;;;;;15.50;99.90;;;;;;5048901;28;19917;-79
2022/07/18 01:07:59;;;;;;;;;;;15.40;99.90;;;;;;5039826;28;20000;-79
2022/07/18 01:10:25;;;;;;;;;;;15.40;99.90;;;;;;5035233;28;19913;-79
2022/07/18 01:12:50;;;;;;;;;;;15.40;99.90;;;;;;5033334;28;20157;-78
2022/07/18 01:15:16;;;;;;;;;;;15.40;99.90;;;;;;5035317;28;20464;-79
2022/07/18 01:17:42;;;;;;;;;;;15.30;99.90;;;;;;5040495;28;19967;-78
2022/07/18 01:20:08;;;;;;;;;;;15.30;99.90;;;;;;5037390;28;20129;-78
2022/07/18 01:22:33;;;;;;;;;;;15.30;99.90;;;;;;5033820;28;19944;-79
2022/07/18 01:24:59;;;;;;;;;;;15.20;99.90;;;;;;5047355;28;20211;-79
2022/07/18 01:27:24;;;;;;;;;;;15.20;99.90;;;;;;5035868;28;19999;-78
2022/07/18 01:29:51;;;;;;;;;;;15.10;99.90;;;;;;5031955;28;19917;-78
2022/07/18 01:32:17;;;;;;;;;;;15.10;99.90;;;;;;5032532;28;19914;-77
2022/07/18 01:34:44;;;;;;;;;;;15.10;99.90;;;;;;5035086;28;19909;-77
2022/07/18 01:37:10;;;;;;;;;;;15.10;99.90;;;;;;5035015;28;20379;-77
2022/07/18 01:39:36;;;;;;;;;;;15.10;99.90;;;;;;5034194;28;19948;-79
2022/07/18 01:42:03;;;;;;;;;;;15.10;99.90;;;;;;5033603;28;19923;-79
2022/07/18 01:44:29;;;;;;;;;;;15.10;99.90;;;;;;5033800;28;19913;-79
2022/07/18 01:46:54;;;;;;;;;;;15.10;99.90;;;;;;5033344;28;20244;-79
2022/07/18 01:49:20;;;;;;;;;;;15.00;99.90;;;;;;5034324;28;19959;-79
2022/07/18 01:51:51;;;;;;;;;;;15.00;99.90;;;;;;5034358;28;20278;-79
2022/07/18 01:54:19;;;;;;;;;;;15.00;99.90;;;;;;5038865;28;19948;-79
2022/07/18 01:56:45;;;;;;;;;;;14.90;99.90;;;;;;5038525;28;20362;-78
2022/07/18 01:59:10;;;;;;;;;;;15.00;99.90;;;;;;5034887;28;19917;-79
2022/07/18 02:01:36;;;;;;;;;;;14.90;99.90;;;;;;5038988;28;19917;-79
2022/07/18 02:04:01;;;;;;;;;;;14.90;99.90;;;;;;5038222;28;19948;-78
2022/07/18 02:06:27;;;;;;;;;;;14.90;99.90;;;;;;5038367;28;19913;-79
2022/07/18 02:08:52;;;;;;;;;;;14.90;99.90;;;;;;5038265;28;19996;-78
2022/07/18 02:11:18;;;;;;;;;;;15.00;99.90;;;;;;5037532;28;19993;-78
2022/07/18 02:13:44;;;;;;;;;;;14.90;99.90;;;;;;5038087;28;19913;-78
2022/07/18 02:16:09;;;;;;;;;;;14.90;99.90;;;;;;5037363;28;20343;-78
2022/07/18 02:18:35;;;;;;;;;;;14.90;99.90;;;;;;5038538;28;19913;-78
2022/07/18 02:21:00;;;;;;;;;;;14.90;99.90;;;;;;5038196;28;19913;-79
2022/07/18 02:23:26;;;;;;;;;;;14.90;99.90;;;;;;5038414;28;20236;-79
2022/07/18 02:25:52;;;;;;;;;;;14.90;99.90;;;;;;5035582;28;19921;-78
2022/07/18 02:28:17;;;;;;;;;;;14.90;99.90;;;;;;5038716;28;19910;-79
2022/07/18 02:30:43;;;;;;;;;;;14.90;99.90;;;;;;5037447;28;20360;-79
2022/07/18 02:33:08;;;;;;;;;;;14.80;99.90;;;;;;5036826;28;19917;-78
2022/07/18 02:35:34;;;;;;;;;;;14.80;99.90;;;;;;5036625;28;19971;-78
2022/07/18 02:38:00;;;;;;;;;;;14.70;99.90;;;;;;5030531;28;20303;-78
2022/07/18 02:40:25;;;;;;;;;;;14.70;99.90;;;;;;5028102;28;20008;-78
2022/07/18 02:42:51;;;;;;;;;;;14.60;99.90;;;;;;5032042;28;19920;-78
2022/07/18 02:45:17;;;;;;;;;;;14.60;99.90;;;;;;5037190;28;19955;-77
2022/07/18 02:47:42;;;;;;;;;;;14.60;99.90;;;;;;5038030;28;19948;-78
2022/07/18 02:50:09;;;;;;;;;;;14.70;99.90;;;;;;5035887;28;20020;-79
2022/07/18 02:52:35;;;;;;;;;;;14.70;99.90;;;;;;5037669;28;19924;-77
2022/07/18 02:55:01;;;;;;;;;;;14.70;99.90;;;;;;5036523;28;19909;-77
2022/07/18 02:57:27;;;;;;;;;;;14.80;99.90;;;;;;5035127;28;19913;-78
2022/07/18 02:59:52;;;;;;;;;;;14.80;99.90;;;;;;5037514;28;20209;-77
2022/07/18 03:02:18;;;;;;;;;;;14.80;99.90;;;;;;5036668;28;19921;-78
2022/07/18 03:04:44;;;;;;;;;;;14.80;99.90;;;;;;5031442;28;19921;-78
2022/07/18 03:07:09;;;;;;;;;;;14.70;99.90;;;;;;5043619;28;19917;-78
2022/07/18 03:09:35;;;;;;;;;;;14.60;99.90;;;;;;5050704;28;19913;-77
2022/07/18 03:12:00;;;;;;;;;;;14.50;99.90;;;;;;5045373;28;19917;-77
2022/07/18 03:14:26;;;;;;;;;;;14.50;99.90;;;;;;5051177;28;19913;-78
2022/07/18 03:16:52;;;;;;;;;;;14.40;99.90;;;;;;5050404;28;20050;-77
2022/07/18 03:19:17;;;;;;;;;;;14.40;99.90;;;;;;5048449;28;19935;-78
2022/07/18 03:21:43;;;;;;;;;;;14.40;99.90;;;;;;5047895;28;19921;-77
2022/07/18 03:24:10;;;;;;;;;;;14.40;99.90;;;;;;5043394;28;20598;-78
2022/07/18 03:26:36;;;;;;;;;;;14.40;99.90;;;;;;5035954;28;19959;-77
2022/07/18 03:29:02;;;;;;;;;;;14.30;99.90;;;;;;5035316;28;19913;-77
2022/07/18 03:31:27;;;;;;;;;;;14.30;99.90;;;;;;5036331;28;19916;-78
2022/07/18 03:33:53;;;;;;;;;;;14.30;99.90;;;;;;5035965;28;19960;-77
2022/07/18 03:36:18;;;;;;;;;;;14.40;99.90;;;;;;5036585;28;19921;-76
2022/07/18 03:38:44;;;;;;;;;;;14.40;99.90;;;;;;5031485;28;19970;-76
2022/07/18 03:41:10;;;;;;;;;;;14.40;99.90;;;;;;5030768;28;19916;-77
2022/07/18 03:43:36;;;;;;;;;;;14.40;99.90;;;;;;5037266;28;20228;-77
2022/07/18 03:46:02;;;;;;;;;;;14.50;99.90;;;;;;5035310;28;19913;-77
2022/07/18 03:48:28;;;;;;;;;;;14.50;99.90;;;;;;5034090;28;19914;-77
2022/07/18 03:50:53;;;;;;;;;;;14.50;99.90;;;;;;5036138;28;19967;-77
2022/07/18 03:53:19;;;;;;;;;;;14.50;99.90;;;;;;5035625;28;20015;-76
2022/07/18 03:55:46;;;;;;;;;;;14.50;99.90;;;;;;5035861;28;19913;-76
2022/07/18 03:58:11;;;;;;;;;;;14.40;99.90;;;;;;5033761;28;20352;-79
2022/07/18 04:00:37;;;;;;;;;;;14.30;99.90;;;;;;5034489;28;19920;-79
2022/07/18 04:03:02;;;;;;;;;;;14.30;99.90;;;;;;5034779;28;19964;-79
2022/07/18 04:05:28;;;;;;;;;;;14.20;99.90;;;;;;5035056;28;20225;-78
2022/07/18 04:07:53;;;;;;;;;;;14.20;99.90;;;;;;5033555;28;20820;-78
2022/07/18 04:10:19;;;;;;;;;;;14.20;99.90;;;;;;5035767;28;19931;-75
2022/07/18 04:12:46;;;;;;;;;;;14.20;99.90;;;;;;5036566;28;19974;-77
2022/07/18 04:15:11;;;;;;;;;;;14.20;99.90;;;;;;5033820;28;19917;-81
2022/07/18 04:17:37;;;;;;;;;;;14.30;99.90;;;;;;5034823;28;20007;-77
2022/07/18 04:20:02;;;;;;;;;;;14.40;99.90;;;;;;5033549;28;19956;-79
2022/07/18 04:22:28;;;;;;;;;;;14.40;99.90;;;;;;5035884;28;19928;-77
2022/07/18 04:24:53;;;;;;;;;;;14.40;99.90;;;;;;5034442;28;19993;-79
2022/07/18 04:27:19;;;;;;;;;;;14.40;99.90;;;;;;5035083;28;19917;-78
2022/07/18 04:29:45;;;;;;;;;;;14.40;99.90;;;;;;5034683;28;19916;-78
2022/07/18 04:32:10;;;;;;;;;;;14.40;99.90;;;;;;5033393;28;19956;-78
2022/07/18 04:34:36;;;;;;;;;;;14.40;99.90;;;;;;5034903;28;19920;-78
2022/07/18 04:37:01;;;;;;;;;;;14.40;99.90;;;;;;5036885;28;19932;-78
2022/07/18 04:39:27;;;;;;;;;;;14.40;99.90;;;;;;5034047;28;19917;-79
2022/07/18 04:41:52;;;;;;;;;;;14.50;99.90;;;;;;5036439;28;19925;-79
2022/07/18 04:44:18;;;;;;;;;;;14.50;99.90;;;;;;5033571;28;19971;-79
2022/07/18 04:46:43;;;;;;;;;;;14.60;99.90;;;;;;5034241;28;19917;-79
2022/07/18 04:49:09;;;;;;;;;;;14.60;99.90;;;;;;5033974;28;19917;-78
2022/07/18 04:51:35;;;;;;;;;;;14.70;99.90;;;;;;5034036;28;19913;-79
2022/07/18 04:54:00;;;;;;;;;;;14.70;99.90;;;;;;5035070;28;19919;-79
2022/07/18 04:56:26;;;;;;;;;;;14.70;99.90;;;;;;5034524;28;19914;-79
2022/07/18 04:58:51;;;;;;;;;;;14.70;99.90;;;;;;5018247;28;19975;-79
2022/07/18 05:01:17;;;;;;;;;;;14.70;99.90;;;;;;5033391;28;19913;-79
2022/07/18 05:03:42;;;;;;;;;;;14.70;99.90;;;;;;5034196;28;19917;-78
2022/07/18 05:06:08;;;;;;;;;;;14.70;99.90;;;;;;5035164;28;19917;-79
2022/07/18 05:08:33;;;;;;;;;;;14.60;99.90;;;;;;5034557;28;19956;-79
2022/07/18 05:10:59;;;;;;;;;;;14.60;99.90;;;;;;5032972;28;19928;-78
2022/07/18 05:13:25;;;;;;;;;;;14.60;99.90;;;;;;5034596;28;19982;-77
2022/07/18 05:15:50;;;;;;;;;;;14.60;99.90;;;;;;5034154;28;20018;-76
2022/07/18 05:18:16;;;;;;;;;;;14.70;99.90;;;;;;5033880;28;19932;-77
2022/07/18 05:20:42;;;;;;;;;;;14.80;99.90;;;;;;5034296;28;19920;-77
2022/07/18 05:23:08;;;;;;;;;;;15.00;99.90;;;;;;5033031;28;19921;-77
2022/07/18 05:25:34;;;;;;;;;;;15.10;99.90;;;;;;5033234;28;20254;-81
2022/07/18 05:27:59;;;;;;;;;;;15.20;99.90;;;;;;5033851;28;19921;-79
2022/07/18 05:30:25;;;;;;;;;;;15.30;99.90;;;;;;5034602;28;19924;-78
2022/07/18 05:32:52;;;;;;;;;;;15.40;99.90;;;;;;5031820;28;20004;-78
2022/07/18 05:35:17;;;;;;;;;;;15.40;99.90;;;;;;5033626;28;20327;-78
2022/07/18 05:37:43;;;;;;;;;;;15.50;99.90;;;;;;5033661;28;19913;-76
2022/07/18 05:40:10;;;;;;;;;;;15.50;99.90;;;;;;5035277;28;19917;-77
2022/07/18 05:42:35;;;;;;;;;;;15.60;99.90;;;;;;5032680;28;19917;-80
2022/07/18 05:45:01;;;;;;;;;;;15.70;99.90;;;;;;5017381;28;19936;-77
2022/07/18 05:47:27;;;;;;;;;;;15.80;99.90;;;;;;5026343;28;19917;-77
2022/07/18 05:49:52;;;;;;;;;;;15.80;99.90;;;;;;5034330;28;19913;-78
2022/07/18 05:52:18;;;;;;;;;;;16.00;99.90;;;;;;5033434;28;19913;-81
2022/07/18 05:54:43;;;;;;;;;;;16.10;99.90;;;;;;5033434;28;19917;-78
2022/07/18 05:57:09;;;;;;;;;;;16.20;99.90;;;;;;5015960;28;19964;-77
2022/07/18 05:59:35;;;;;;;;;;;16.40;99.90;;;;;;5033666;28;19913;-77
2022/07/18 06:02:00;;;;;;;;;;;16.50;99.90;;;;;;5034104;28;19939;-78
2022/07/18 06:04:26;;;;;;;;;;;16.70;99.90;;;;;;5034499;28;19913;-78
2022/07/18 06:06:51;;;;;;;;;;;16.90;99.90;;;;;;5033038;28;19916;-78
2022/07/18 06:09:17;;;;;;;;;;;17.10;99.90;;;;;;5041201;28;19920;-81
2022/07/18 06:11:43;;;;;;;;;;;17.20;99.90;;;;;;5033992;28;19913;-78
2022/07/18 06:14:09;;;;;;;;;;;17.40;99.90;;;;;;5034027;28;20328;-77
2022/07/18 06:16:36;;;;;;;;;;;17.60;99.90;;;;;;5034289;28;19956;-78
2022/07/18 06:19:02;;;;;;;;;;;17.70;99.90;;;;;;5031793;28;19913;-77
2022/07/18 06:21:27;;;;;;;;;;;17.90;99.90;;;;;;5033907;28;19924;-78
2022/07/18 06:23:53;;;;;;;;;;;18.00;99.90;;;;;;5033336;28;19913;-79
2022/07/18 06:26:19;;;;;;;;;;;18.20;99.90;;;;;;5034185;28;19917;-79
2022/07/18 06:28:44;;;;;;;;;;;18.30;99.90;;;;;;5034036;28;19963;-77
2022/07/18 06:31:11;;;;;;;;;;;18.40;99.90;;;;;;5033620;28;19913;-79
2022/07/18 06:33:37;;;;;;;;;;;18.50;99.90;;;;;;5033728;28;19913;-79
2022/07/18 06:36:02;;;;;;;;;;;18.60;99.90;;;;;;5034159;28;19920;-80
2022/07/18 06:38:28;;;;;;;;;;;18.70;99.90;;;;;;5036579;28;19920;-79
2022/07/18 06:40:54;;;;;;;;;;;18.80;99.90;;;;;;5037319;28;19913;-78
2022/07/18 06:43:19;;;;;;;;;;;19.00;99.90;;;;;;5037066;28;19917;-76
2022/07/18 06:45:48;;;;;;;;;;;19.10;99.90;;;;;;5038023;28;19909;-76
2022/07/18 06:48:14;;;;;;;;;;;19.30;99.90;;;;;;5037405;28;19916;-78
2022/07/18 06:50:40;;;;;;;;;;;19.40;99.90;;;;;;5051246;28;19920;-78
2022/07/18 06:53:05;;;;;;;;;;;19.50;99.90;;;;;;5040775;28;19913;-79
2022/07/18 06:55:31;;;;;;;;;;;19.50;99.90;;;;;;5031536;28;20051;-78
2022/07/18 06:57:57;;;;;;;;;;;19.60;99.90;;;;;;5038783;28;19966;-77
2022/07/18 07:00:22;;;;;;;;;;;19.70;99.90;;;;;;5046997;28;19924;-81
2022/07/18 07:02:48;;;;;;;;;;;19.80;99.90;;;;;;5046495;28;20356;-82
2022/07/18 07:05:15;;;;;;;;;;;19.80;99.90;;;;;;5046111;28;19917;-79
2022/07/18 07:07:41;;;;;;;;;;;20.00;99.90;;;;;;5047533;28;20005;-76
2022/07/18 07:10:07;;;;;;;;;;;20.00;99.90;;;;;;5040536;28;20011;-80
2022/07/18 07:12:42;;;;;;;;;;;20.20;99.90;;;;;;5038486;28;19913;-78
2022/07/18 07:15:09;;;;;;;;;;;20.30;99.90;;;;;;5036967;28;20005;-76
2022/07/18 07:17:35;;;;;;;;;;;20.60;99.90;;;;;;5035123;28;19924;-78
2022/07/18 07:20:00;;;;;;;;;;;20.70;99.90;;;;;;5019325;28;20423;-79
2022/07/18 07:22:26;;;;;;;;;;;20.90;99.90;;;;;;5035441;28;20023;-80
2022/07/18 07:24:51;;;;;;;;;;;20.90;99.90;;;;;;5036415;28;20228;-79
2022/07/18 07:27:17;;;;;;;;;;;21.00;99.90;;;;;;5043228;28;19964;-79
2022/07/18 07:29:43;;;;;;;;;;;21.10;99.90;;;;;;5039728;28;19920;-79
2022/07/18 07:32:08;;;;;;;;;;;21.20;99.90;;;;;;5046625;28;20020;-78
2022/07/18 07:34:34;;;;;;;;;;;21.20;99.90;;;;;;5044359;28;19979;-79
2022/07/18 07:37:00;;;;;;;;;;;21.40;99.90;;;;;;5047729;28;20379;-78
2022/07/18 07:39:25;;;;;;;;;;;21.40;99.90;;;;;;5065108;28;19917;-79
2022/07/18 07:41:51;;;;;;;;;;;21.40;99.90;;;;;;5039042;28;19924;-78
2022/07/18 07:44:16;;;;;;;;;;;21.40;99.90;;;;;;5035451;28;19917;-78
2022/07/18 07:46:42;;;;;;;;;;;21.30;99.90;;;;;;5034612;28;19959;-78
2022/07/18 07:49:07;;;;;;;;;;;21.30;99.90;;;;;;5034473;28;19921;-79
2022/07/18 07:51:33;;;;;;;;;;;21.40;99.90;;;;;;5034699;28;20316;-79
2022/07/18 07:53:58;;;;;;;;;;;21.50;99.90;;;;;;5034699;28;20324;-79
2022/07/18 07:56:24;;;;;;;;;;;21.90;99.90;;;;;;5034294;28;19939;-78
2022/07/18 07:58:49;;;;;;;;;;;22.30;99.90;;;;;;5036088;28;19928;-79
2022/07/18 08:01:17;;;;;;;;;;;22.70;99.90;;;;;;5036819;28;19999;-79
2022/07/18 08:03:44;;;;;;;;;;;23.20;99.90;;;;;;5032794;28;20031;-78
2022/07/18 08:06:10;;;;;;;;;;;23.70;99.90;;;;;;5035164;28;19978;-79
2022/07/18 08:08:36;;;;;;;;;;;24.10;99.90;;;;;;5035167;28;20324;-82
2022/07/18 08:11:01;;;;;;;;;;;24.50;99.90;;;;;;5034535;28;19923;-78
2022/07/18 08:13:27;;;;;;;;;;;24.90;99.90;;;;;;5035490;28;19917;-80
2022/07/18 08:15:52;;;;;;;;;;;25.30;99.90;;;;;;5035663;28;19923;-77
2022/07/18 08:18:18;;;;;;;;;;;25.60;99.90;;;;;;5035380;28;19949;-77
2022/07/18 08:20:44;;;;;;;;;;;25.90;99.60;;;;;;5034457;28;19937;-77
2022/07/18 08:23:10;;;;;;;;;;;26.20;99.90;;;;;;5034895;28;20399;-78
2022/07/18 08:25:37;;;;;;;;;;;26.50;98.90;;;;;;5016228;28;20007;-76
2022/07/18 08:28:03;;;;;;;;;;;26.70;99.90;;;;;;5035976;28;19921;-76
2022/07/18 08:30:29;;;;;;;;;;;27.10;99.90;;;;;;5040988;28;19917;-76
2022/07/18 08:32:54;;;;;;;;;;;27.20;99.90;;;;;;5045816;28;19940;-78
2022/07/18 08:35:20;;;;;;;;;;;27.50;97.70;;;;;;5049576;28;20304;-77
2022/07/18 08:37:46;;;;;;;;;;;27.90;97.10;;;;;;5048978;28;19970;-77
2022/07/18 08:40:12;;;;;;;;;;;28.00;98.30;;;;;;5028331;28;20037;-77
2022/07/18 08:42:38;;;;;;;;;;;28.30;97.60;;;;;;5035702;28;19921;-79
2022/07/18 08:45:04;;;;;;;;;;;28.20;94.60;;;;;;5034543;28;19917;-76
2022/07/18 08:47:30;;;;;;;;;;;27.80;96.50;;;;;;5035405;28;19921;-78
2022/07/18 08:49:55;;;;;;;;;;;27.50;95.50;;;;;;5038280;28;19920;-81
2022/07/18 08:52:21;;;;;;;;;;;27.50;95.60;;;;;;5048896;28;19917;-78
2022/07/18 08:54:50;;;;;;;;;;;27.50;95.90;;;;;;5038818;28;19913;-79
2022/07/18 08:57:16;;;;;;;;;;;27.40;95.50;;;;;;5046344;28;19913;-77
2022/07/18 08:59:42;;;;;;;;;;;27.10;96.90;;;;;;5042592;28;19913;-77
2022/07/18 09:02:07;;;;;;;;;;;26.90;97.60;;;;;;5034976;28;19935;-76
2022/07/18 09:04:33;;;;;;;;;;;26.70;98.30;;;;;;5032136;28;20231;-78
2022/07/18 09:06:59;;;;;;;;;;;26.50;99.40;;;;;;5034574;28;19947;-76
2022/07/18 09:09:24;;;;;;;;;;;26.20;99.90;;;;;;5035020;28;20394;-76
2022/07/18 09:11:51;;;;;;;;;;;26.00;99.90;;;;;;5034897;28;19916;-78
2022/07/18 09:14:38;;;;;;;;;;;25.90;99.90;;;;;;5034072;28;20309;-76
2022/07/18 09:17:11;;;;;;;;;;;25.70;99.90;;;;;;5034955;28;19913;-77
2022/07/18 09:19:38;;;;;;;;;;;25.50;99.90;;;;;;5035353;28;19932;-77
2022/07/18 09:22:12;;;;;;;;;;;25.40;99.90;;;;;;5033457;28;20015;-78
2022/07/18 09:24:54;;;;;;;;;;;25.30;99.90;;;;;;5034989;28;19959;-78
2022/07/18 09:27:27;;;;;;;;;;;25.20;99.90;;;;;;5033693;28;20305;-77
2022/07/18 09:30:08;;;;;;;;;;;25.20;99.90;;;;;;5033928;28;19913;-76
2022/07/18 09:32:34;;;;;;;;;;;25.80;99.90;;;;;;5052649;28;19913;-78
2022/07/18 09:35:06;;;;;;;;;;;26.50;99.90;;;;;;5042042;28;19927;-77
2022/07/18 09:37:32;;;;;;;;;;;27.20;98.40;;;;;;5044557;28;19913;-76
2022/07/18 09:40:15;;;;;;;;;;;27.90;96.50;;;;;;5058269;28;20231;-77
2022/07/18 09:42:40;;;;;;;;;;;28.40;95.90;;;;;;5038346;28;19978;-77
2022/07/18 09:45:06;;;;;;;;;;;29.00;93.30;;;;;;5045614;28;19913;-79
2022/07/18 09:47:32;;;;;;;;;;;29.10;94.10;;;;;;5034961;28;20228;-80
2022/07/18 09:49:57;;;;;;;;;;;29.30;92.80;;;;;;5032658;28;19913;-79
2022/07/18 09:52:23;;;;;;;;;;;29.50;93.50;;;;;;5033574;28;20013;-78
2022/07/18 09:54:48;;;;;;;;;;;29.80;93.70;;;;;;5032213;28;20232;-77
2022/07/18 09:57:23;;;;;;;;;;;30.00;93.90;;;;;;5033851;28;19917;-79
2022/07/18 09:59:49;;;;;;;;;;;30.20;91.70;;;;;;5032896;28;19967;-77
2022/07/18 10:02:15;;;;;;;;;;;30.40;93.00;;;;;;5034474;28;19913;-78
2022/07/18 10:04:40;;;;;;;;;;;30.70;93.80;;;;;;5032887;28;19921;-77
2022/07/18 10:07:06;;;;;;;;;;;30.90;92.40;;;;;;5030531;28;20244;-77
2022/07/18 10:09:32;;;;;;;;;;;31.20;89.20;;;;;;5034861;28;19924;-76
2022/07/18 10:11:58;;;;;;;;;;;31.40;90.50;;;;;;5032672;28;19960;-80
2022/07/18 10:14:26;;;;;;;;;;;31.70;90.20;;;;;;5045133;28;19920;-76
2022/07/18 10:16:52;;;;;;;;;;;31.80;91.30;;;;;;5046023;28;19909;-77
2022/07/18 10:19:18;;;;;;;;;;;31.60;89.50;;;;;;5046592;28;20111;-76
2022/07/18 10:21:45;;;;;;;;;;;31.70;88.80;;;;;;5052392;28;19951;-78
2022/07/18 10:24:11;;;;;;;;;;;31.80;88.30;;;;;;5048717;28;20012;-78
2022/07/18 10:26:37;;;;;;;;;;;32.00;86.90;;;;;;5048592;28;20040;-77
2022/07/18 10:29:02;;;;;;;;;;;32.10;90.50;;;;;;5048134;28;20217;-79
2022/07/18 10:31:28;;;;;;;;;;;32.20;90.70;;;;;;5040375;28;20298;-78
2022/07/18 10:33:54;;;;;;;;;;;31.80;90.20;;;;;;5044554;28;19913;-78
2022/07/18 10:36:20;;;;;;;;;;;32.10;89.50;;;;;;5047637;28;19917;-76
2022/07/18 10:39:01;;;;;;;;;;;32.10;90.40;;;;;;5051269;28;20323;-78
2022/07/18 10:41:27;;;;;;;;;;;32.20;90.30;;;;;;5045513;28;19917;-79
2022/07/18 10:43:52;;;;;;;;;;;32.10;88.50;;;;;;5047443;28;19923;-76
2022/07/18 10:46:18;;;;;;;;;;;32.30;89.50;;;;;;5042630;28;19953;-77
2022/07/18 10:48:46;;;;;;;;;;;32.50;84.90;;;;;;5045178;28;19921;-76
2022/07/18 10:51:13;;;;;;;;;;;32.60;87.70;;;;;;5042990;28;20303;-77
2022/07/18 10:54:02;;;;;;;;;;;32.90;84.90;;;;;;5044651;28;20336;-77
2022/07/18 10:56:27;;;;;;;;;;;33.00;83.90;;;;;;5046617;28;20263;-76
2022/07/18 10:58:55;;;;;;;;;;;32.70;88.40;;;;;;5046929;28;19920;-77
2022/07/18 11:01:20;;;;;;;;;;;32.70;87.00;;;;;;5046092;28;19928;-76
2022/07/18 11:03:46;;;;;;;;;;;32.90;85.40;;;;;;5046216;28;19917;-77
2022/07/18 11:06:12;;;;;;;;;;;33.20;83.80;;;;;;5047524;28;20295;-77
2022/07/18 11:08:37;;;;;;;;;;;33.20;85.20;;;;;;5047695;28;19920;-76
2022/07/18 11:11:03;;;;;;;;;;;33.10;81.20;;;;;;5050939;28;19917;-76
2022/07/18 11:13:36;;;;;;;;;;;32.80;84.20;;;;;;5036022;28;19917;-76
2022/07/18 11:16:04;;;;;;;;;;;32.80;86.60;;;;;;5035481;28;20364;-76
2022/07/18 11:18:30;;;;;;;;;;;33.00;85.60;;;;;;5034965;28;19925;-76
2022/07/18 11:20:56;;;;;;;;;;;33.00;87.70;;;;;;5037204;28;19971;-76
2022/07/18 11:23:22;;;;;;;;;;;33.10;85.70;;;;;;5039462;28;20359;-77
2022/07/18 11:25:49;;;;;;;;;;;33.50;80.70;;;;;;5046510;28;20208;-76
2022/07/18 11:28:15;;;;;;;;;;;33.60;81.00;;;;;;5048201;28;19923;-76
2022/07/18 11:30:41;;;;;;;;;;;33.90;83.50;;;;;;5053358;28;19909;-78
2022/07/18 11:33:20;;;;;;;;;;;34.00;74.00;;;;;;5049998;28;19915;-76
2022/07/18 11:35:46;;;;;;;;;;;33.90;80.00;;;;;;5043323;28;20220;-76
2022/07/18 11:38:11;;;;;;;;;;;33.60;81.70;;;;;;5046900;28;19917;-76
2022/07/18 11:40:52;;;;;;;;;;;33.50;80.90;;;;;;5048944;28;19920;-76
2022/07/18 11:43:25;;;;;;;;;;;33.80;79.50;;;;;;5045480;28;19917;-77
2022/07/18 11:46:00;;;;;;;;;;;34.00;79.20;;;;;;5049044;28;19909;-77
2022/07/18 11:48:26;;;;;;;;;;;34.20;82.80;;;;;;5044986;28;19913;-79
2022/07/18 11:50:52;;;;;;;;;;;34.50;73.50;;;;;;5041097;28;19913;-78
2022/07/18 11:53:17;;;;;;;;;;;34.30;78.30;;;;;;5036440;28;19914;-81
2022/07/18 11:55:43;;;;;;;;;;;33.90;80.40;;;;;;5036912;28;19917;-77
2022/07/18 11:58:09;;;;;;;;;;;33.90;82.70;;;;;;5034983;28;20552;-76
2022/07/18 12:00:35;;;;;;;;;;;33.90;79.70;;;;;;5018824;28;19917;-78
2022/07/18 12:03:01;;;;;;;;;;;34.10;78.30;;;;;;5035173;28;19940;-77
2022/07/18 12:05:34;;;;;;;;;;;34.30;79.10;;;;;;5035025;28;19924;-78
2022/07/18 12:07:59;;;;;;;;;;;34.40;81.30;;;;;;5036545;28;19921;-77
2022/07/18 12:10:25;;;;;;;;;;;34.50;81.60;;;;;;5033545;28;19920;-76
2022/07/18 12:12:50;;;;;;;;;;;34.10;79.00;;;;;;5035824;28;19923;-77
2022/07/18 12:15:16;;;;;;;;;;;34.60;78.20;;;;;;5034303;28;20316;-76
2022/07/18 12:17:45;;;;;;;;;;;34.60;79.70;;;;;;5035907;28;19935;-80
2022/07/18 12:20:15;;;;;;;;;;;34.90;77.90;;;;;;5033357;28;19923;-74
2022/07/18 12:23:00;;;;;;;;;;;35.00;79.30;;;;;;5044995;28;19925;-74
2022/07/18 12:25:44;;;;;;;;;;;35.00;78.70;;;;;;5034294;28;19913;-77
2022/07/18 12:28:14;;;;;;;;;;;35.10;79.50;;;;;;5035707;28;19909;-77
2022/07/18 12:30:39;;;;;;;;;;;35.10;79.60;;;;;;5034263;28;19924;-77
2022/07/18 12:33:11;;;;;;;;;;;35.20;79.60;;;;;;5036098;28;19909;-79
2022/07/18 12:35:37;;;;;;;;;;;35.30;74.00;;;;;;5033950;28;19921;-76
2022/07/18 12:38:06;;;;;;;;;;;35.40;75.20;;;;;;5035610;28;19915;-78
2022/07/18 12:40:40;;;;;;;;;;;35.00;74.90;;;;;;5035643;28;19909;-77
2022/07/18 12:43:07;;;;;;;;;;;35.10;79.40;;;;;;5035391;28;19925;-77
2022/07/18 12:45:33;;;;;;;;;;;35.00;76.80;;;;;;5035966;28;19979;-78
2022/07/18 12:47:59;;;;;;;;;;;35.00;75.90;;;;;;5033925;28;19956;-79
2022/07/18 12:50:25;;;;;;;;;;;35.20;76.20;;;;;;5035569;28;19913;-78
2022/07/18 12:52:50;;;;;;;;;;;35.40;71.90;;;;;;5037049;28;19958;-77
2022/07/18 12:55:17;;;;;;;;;;;35.30;70.80;;;;;;5043455;28;19943;-78
2022/07/18 12:57:43;;;;;;;;;;;35.20;72.90;;;;;;5047533;28;19916;-77
2022/07/18 13:00:09;;;;;;;;;;;35.20;76.60;;;;;;5042555;28;19909;-79
2022/07/18 13:02:34;;;;;;;;;;;35.20;77.00;;;;;;5037654;28;19925;-78
2022/07/18 13:05:00;;;;;;;;;;;35.10;73.10;;;;;;5031870;28;19948;-74
2022/07/18 13:07:25;;;;;;;;;;;35.30;70.90;;;;;;5040481;28;19913;-75
2022/07/18 13:09:51;;;;;;;;;;;35.30;70.60;;;;;;5049485;28;19952;-76
2022/07/18 13:12:16;;;;;;;;;;;35.00;72.10;;;;;;5039775;28;19913;-75
2022/07/18 13:14:42;;;;;;;;;;;35.00;72.80;;;;;;5045235;28;19924;-75
2022/07/18 13:17:08;;;;;;;;;;;35.00;73.00;;;;;;5047174;28;19947;-74
2022/07/18 13:19:33;;;;;;;;;;;34.70;76.20;;;;;;5031964;28;20051;-76
2022/07/18 13:21:59;;;;;;;;;;;34.50;77.30;;;;;;5038845;28;20243;-75
2022/07/18 13:24:24;;;;;;;;;;;34.60;78.30;;;;;;5048053;28;19917;-77
2022/07/18 13:26:50;;;;;;;;;;;34.80;78.70;;;;;;5051447;28;20304;-79
2022/07/18 13:29:15;;;;;;;;;;;34.80;78.20;;;;;;5046745;28;19913;-78
2022/07/18 13:31:41;;;;;;;;;;;34.90;74.70;;;;;;5034672;28;20297;-79
2022/07/18 13:34:07;;;;;;;;;;;35.10;77.40;;;;;;5034515;28;20224;-79
2022/07/18 13:36:32;;;;;;;;;;;35.10;75.00;;;;;;5033329;28;19985;-77
2022/07/18 13:38:58;;;;;;;;;;;35.00;75.80;;;;;;5033121;28;19917;-74
2022/07/18 13:41:25;;;;;;;;;;;35.00;78.60;;;;;;5032977;28;19983;-76
2022/07/18 13:43:50;;;;;;;;;;;35.20;79.10;;;;;;5033775;28;19913;-76
2022/07/18 13:46:17;;;;;;;;;;;35.30;78.00;;;;;;5033148;28;20008;-77
2022/07/18 13:48:44;;;;;;;;;;;35.50;76.00;;;;;;5033139;28;19917;-77
2022/07/18 13:51:09;;;;;;;;;;;35.40;78.10;;;;;;5033503;28;19917;-76
2022/07/18 13:53:35;;;;;;;;;;;35.30;76.70;;;;;;5030318;28;19935;-77
2022/07/18 13:56:01;;;;;;;;;;;35.40;77.40;;;;;;5025750;28;19920;-77
2022/07/18 13:58:26;;;;;;;;;;;35.10;76.10;;;;;;5033452;28;19920;-77
2022/07/18 14:00:52;;;;;;;;;;;35.00;74.70;;;;;;5034361;28;19913;-79
2022/07/18 14:03:17;;;;;;;;;;;34.90;79.10;;;;;;5033127;28;20198;-79
2022/07/18 14:05:43;;;;;;;;;;;34.70;77.30;;;;;;5034404;28;19920;-78
2022/07/18 14:08:08;;;;;;;;;;;34.60;76.80;;;;;;5033505;28;19913;-77
2022/07/18 14:10:34;;;;;;;;;;;34.90;75.10;;;;;;5033725;28;19917;-81
2022/07/18 14:13:00;;;;;;;;;;;35.10;75.00;;;;;;5033838;28;19917;-80
2022/07/18 14:15:26;;;;;;;;;;;35.20;75.90;;;;;;5033625;28;19917;-80